sim
Sign-in with your pilot id or email,
or register
Callsign
Passwort

Schedule Details

Flight Number: RYR6661
Departure: Bremen Airport (EDDW) at 10:55
Arrival: Fuerteventura Airport (GCFV) at 15:40
Route: Ryanair Passenger Schedule. Enter filed route here before submitting Pirep.

Weather Information
Getting current METAR information for EDDW 160220Z 13003KT CAVOK 02/M01 Q1025 NOSIG
Getting current METAR information for GCFV 160230Z AUTO 28005KT 9999 NCD 13/10 Q1018

Schedule Frequency

Route Map